Time;durP1;ratioP1;P1;durP2;ratioP2;P2;SDS_P1;SDS_P2;PMS_P1;PMS_P2;Temp;Humidity;BMP_temperature;BMP_pressure;BME280_temperature;BME280_humidity;BME280_pressure;Samples;Min_cycle;Max_cycle;Signal;HPM_P1;HPM_P2
2021/10/08 00:01:59;;;;;;;1.17;1.08;;;14.90;99.90;;;;;;4949462;29;20031;-77
2021/10/08 00:04:24;;;;;;;1.80;1.20;;;14.90;99.90;;;;;;4943797;28;20036;-78
2021/10/08 00:06:50;;;;;;;2.05;1.20;;;14.80;99.90;;;;;;4953527;29;20027;-77
2021/10/08 00:09:16;;;;;;;2.08;1.20;;;14.80;99.90;;;;;;4954952;28;20106;-77
2021/10/08 00:11:41;;;;;;;1.58;1.25;;;14.80;99.90;;;;;;4946632;28;20044;-77
2021/10/08 00:14:08;;;;;;;1.42;1.30;;;14.70;99.90;;;;;;4945759;29;20040;-78
2021/10/08 00:16:34;;;;;;;3.97;1.15;;;14.80;99.90;;;;;;4955399;28;20117;-78
2021/10/08 00:19:00;;;;;;;1.02;0.98;;;14.80;99.90;;;;;;4956857;29;20042;-78
2021/10/08 00:21:25;;;;;;;1.00;0.98;;;14.80;99.90;;;;;;4957098;28;20040;-78
2021/10/08 00:23:51;;;;;;;2.03;1.50;;;14.80;99.90;;;;;;4947099;29;20761;-78
2021/10/08 00:26:18;;;;;;;1.02;1.02;;;14.80;99.90;;;;;;4952040;28;20031;-77
2021/10/08 00:28:44;;;;;;;4.30;1.15;;;14.80;99.90;;;;;;4962137;28;20036;-78
2021/10/08 00:31:10;;;;;;;2.15;1.25;;;14.80;99.90;;;;;;4956729;29;20044;-78
2021/10/08 00:33:35;;;;;;;2.13;1.30;;;14.90;99.90;;;;;;4955716;28;20395;-78
2021/10/08 00:36:01;;;;;;;1.45;1.33;;;14.80;99.90;;;;;;4948145;29;20070;-77
2021/10/08 00:38:27;;;;;;;1.20;1.08;;;14.80;99.90;;;;;;4953354;28;20035;-78
2021/10/08 00:40:53;;;;;;;1.35;1.25;;;14.80;99.90;;;;;;4957626;28;20071;-78
2021/10/08 00:43:20;;;;;;;1.30;1.20;;;14.80;99.90;;;;;;4956117;29;20424;-78
2021/10/08 00:45:46;;;;;;;1.40;1.30;;;14.80;99.90;;;;;;4948870;28;20118;-77
2021/10/08 00:48:13;;;;;;;1.90;1.38;;;14.80;99.90;;;;;;4957039;28;20036;-78
2021/10/08 00:50:45;;;;;;;1.83;1.55;;;14.80;99.90;;;;;;4955854;28;20043;-78
2021/10/08 00:53:11;;;;;;;1.80;1.40;;;14.80;99.90;;;;;;4956374;29;20027;-78
2021/10/08 00:55:42;;;;;;;2.33;1.70;;;14.90;99.90;;;;;;4956063;28;20027;-77
2021/10/08 00:58:09;;;;;;;2.13;1.45;;;14.90;99.90;;;;;;4956877;28;20054;-78
2021/10/08 01:00:38;;;;;;;2.13;1.90;;;14.90;99.90;;;;;;4956967;28;20027;-78
2021/10/08 01:03:04;;;;;;;5.75;2.83;;;14.90;99.90;;;;;;4955936;29;20118;-78
2021/10/08 01:05:29;;;;;;;3.33;2.40;;;15.00;99.90;;;;;;4956307;28;20122;-77
2021/10/08 01:07:55;;;;;;;4.35;2.42;;;15.00;99.90;;;;;;4955951;28;20039;-78
2021/10/08 01:10:21;;;;;;;2.78;2.58;;;15.00;99.90;;;;;;4950186;29;20571;-78
2021/10/08 01:12:46;;;;;;;5.65;3.33;;;14.90;99.90;;;;;;4946129;28;20036;-77
2021/10/08 01:15:13;;;;;;;4.10;3.38;;;15.00;99.90;;;;;;4967287;28;20044;-78
2021/10/08 01:17:39;;;;;;;5.57;3.65;;;15.00;99.90;;;;;;4944947;28;20597;-77
2021/10/08 01:20:07;;;;;;;6.50;3.20;;;15.10;99.90;;;;;;4954761;29;20164;-78
2021/10/08 01:22:33;;;;;;;3.85;3.45;;;15.10;99.90;;;;;;4956234;28;20030;-78
2021/10/08 01:24:59;;;;;;;5.43;3.80;;;15.10;99.90;;;;;;4942057;29;20139;-78
2021/10/08 01:27:24;;;;;;;4.15;3.45;;;15.10;99.90;;;;;;4946412;28;20111;-76
2021/10/08 01:29:55;;;;;;;4.47;3.45;;;15.20;99.90;;;;;;4955447;29;20166;-78
2021/10/08 01:32:22;;;;;;;8.00;4.18;;;15.20;99.90;;;;;;4955397;28;20405;-76
2021/10/08 01:34:48;;;;;;;4.95;3.58;;;15.30;99.90;;;;;;4939218;28;20040;-78
2021/10/08 01:37:18;;;;;;;3.92;3.53;;;15.30;99.90;;;;;;4948524;29;20081;-78
2021/10/08 01:39:45;;;;;;;6.25;4.20;;;15.30;99.90;;;;;;4949546;28;20036;-77
2021/10/08 01:42:11;;;;;;;5.20;3.55;;;15.30;99.90;;;;;;4946479;29;20432;-77
2021/10/08 01:44:38;;;;;;;6.93;3.75;;;15.30;99.90;;;;;;4954726;28;20059;-76
2021/10/08 01:47:04;;;;;;;11.75;4.28;;;15.40;99.90;;;;;;4956753;28;20043;-76
2021/10/08 01:49:30;;;;;;;6.53;4.28;;;15.40;99.90;;;;;;4940063;29;20047;-78
2021/10/08 01:51:58;;;;;;;8.52;4.80;;;15.40;99.90;;;;;;4955400;28;20385;-77
2021/10/08 01:54:23;;;;;;;7.03;4.78;;;15.40;99.90;;;;;;4938942;29;20027;-77
2021/10/08 01:56:49;;;;;;;14.88;5.05;;;15.40;99.90;;;;;;4940364;28;20036;-78
2021/10/08 01:59:15;;;;;;;16.63;5.32;;;15.40;99.90;;;;;;4946603;28;20040;-78
2021/10/08 02:01:41;;;;;;;11.52;5.75;;;15.40;99.90;;;;;;4954580;29;20384;-78
2021/10/08 02:04:08;;;;;;;13.02;5.63;;;15.40;99.90;;;;;;4954867;28;20035;-77
2021/10/08 02:06:34;;;;;;;12.02;5.28;;;15.40;99.90;;;;;;4953689;28;20484;-77
2021/10/08 02:09:01;;;;;;;10.52;6.35;;;15.40;99.90;;;;;;4941021;28;20385;-78
2021/10/08 02:11:26;;;;;;;11.18;5.82;;;15.30;99.90;;;;;;4943801;29;20043;-78
2021/10/08 02:13:53;;;;;;;12.30;6.68;;;15.40;99.90;;;;;;4928144;29;20046;-78
2021/10/08 02:16:20;;;;;;;12.20;6.32;;;15.40;99.90;;;;;;4954908;29;20066;-78
2021/10/08 02:18:50;;;;;;;10.82;6.18;;;15.50;99.90;;;;;;4953488;28;20031;-77
2021/10/08 02:21:17;;;;;;;11.13;6.10;;;15.50;99.90;;;;;;4953626;28;20078;-78
2021/10/08 02:23:43;;;;;;;12.85;7.20;;;15.50;99.90;;;;;;4954066;29;20019;-78
2021/10/08 02:26:09;;;;;;;11.00;6.40;;;15.50;99.90;;;;;;4955634;28;20050;-77
2021/10/08 02:28:35;;;;;;;19.90;6.95;;;15.50;99.90;;;;;;4945840;28;20038;-78
2021/10/08 02:31:01;;;;;;;14.00;6.32;;;15.50;99.90;;;;;;4953493;28;20042;-77
2021/10/08 02:33:26;;;;;;;16.65;7.70;;;15.40;99.90;;;;;;4937398;29;20039;-78
2021/10/08 02:35:52;;;;;;;17.08;6.93;;;15.50;99.90;;;;;;4954660;28;20122;-78
2021/10/08 02:38:18;;;;;;;13.82;6.97;;;15.50;99.90;;;;;;4947905;29;20067;-78
2021/10/08 02:40:45;;;;;;;23.70;6.45;;;15.50;99.90;;;;;;4946187;28;20054;-77
2021/10/08 02:43:11;;;;;;;18.80;8.07;;;15.50;99.90;;;;;;4954394;28;20027;-78
2021/10/08 02:45:37;;;;;;;18.83;7.45;;;15.50;99.90;;;;;;4954256;28;20047;-78
2021/10/08 02:48:04;;;;;;;11.52;7.07;;;15.50;99.90;;;;;;4954508;29;20035;-78
2021/10/08 02:50:29;;;;;;;16.67;7.30;;;15.50;99.90;;;;;;4943206;28;20036;-77
2021/10/08 02:52:55;;;;;;;16.35;6.63;;;15.50;99.90;;;;;;4955195;28;20035;-77
2021/10/08 02:55:21;;;;;;;12.80;7.15;;;15.50;99.90;;;;;;4953783;29;20035;-78
2021/10/08 02:57:47;;;;;;;14.38;7.60;;;15.50;99.90;;;;;;4954899;28;20035;-78
2021/10/08 03:00:13;;;;;;;15.00;6.65;;;15.50;99.90;;;;;;4954296;29;20035;-78
2021/10/08 03:02:39;;;;;;;16.40;7.13;;;15.50;99.90;;;;;;4954347;28;20027;-78
2021/10/08 03:05:07;;;;;;;11.32;6.80;;;15.50;99.90;;;;;;4953940;29;20036;-78
2021/10/08 03:07:32;;;;;;;20.55;6.40;;;15.50;99.90;;;;;;4952142;28;20034;-78
2021/10/08 03:09:59;;;;;;;15.00;7.53;;;15.60;99.90;;;;;;4937002;29;20043;-78
2021/10/08 03:12:25;;;;;;;10.18;6.50;;;15.60;99.90;;;;;;4946610;28;20113;-78
2021/10/08 03:14:51;;;;;;;14.80;6.22;;;15.60;99.90;;;;;;4944111;29;20035;-78
2021/10/08 03:17:17;;;;;;;21.08;6.25;;;15.50;99.90;;;;;;4948454;28;20393;-78
2021/10/08 03:19:42;;;;;;;24.27;7.35;;;15.60;99.90;;;;;;4942023;29;20046;-78
2021/10/08 03:22:09;;;;;;;14.60;6.57;;;15.50;99.90;;;;;;4948712;28;20040;-78
2021/10/08 03:24:35;;;;;;;13.35;5.85;;;15.50;99.90;;;;;;4942822;29;20051;-78
2021/10/08 03:27:01;;;;;;;16.52;6.57;;;15.50;99.90;;;;;;4952893;28;20487;-78
2021/10/08 03:29:26;;;;;;;25.10;7.28;;;15.60;99.90;;;;;;4953417;29;20046;-79
2021/10/08 03:31:52;;;;;;;12.85;6.63;;;15.60;99.90;;;;;;4953431;28;20039;-78
2021/10/08 03:34:18;;;;;;;15.38;6.70;;;15.60;99.90;;;;;;4952674;29;20031;-78
2021/10/08 03:36:46;;;;;;;19.27;6.32;;;15.60;99.90;;;;;;4927741;29;20051;-78
2021/10/08 03:39:15;;;;;;;17.15;6.35;;;15.60;99.90;;;;;;4953100;29;20027;-77
2021/10/08 03:41:43;;;;;;;13.60;7.03;;;15.70;99.90;;;;;;4944735;28;20437;-79
2021/10/08 03:44:09;;;;;;;26.73;7.13;;;15.70;99.90;;;;;;4942740;29;20020;-78
2021/10/08 03:46:49;;;;;;;27.13;7.18;;;15.60;99.90;;;;;;4951468;28;20031;-78
2021/10/08 03:49:16;;;;;;;13.52;6.43;;;15.70;99.90;;;;;;4949461;29;20039;-78
2021/10/08 03:51:44;;;;;;;10.43;6.80;;;15.70;99.90;;;;;;4956173;28;20089;-77
2021/10/08 03:54:11;;;;;;;15.68;6.45;;;15.70;99.90;;;;;;4950482;29;20034;-78
2021/10/08 03:56:38;;;;;;;14.10;6.28;;;15.70;99.90;;;;;;4945211;28;20114;-77
2021/10/08 03:59:04;;;;;;;18.75;7.07;;;15.70;99.90;;;;;;4941369;29;20031;-78
2021/10/08 04:01:30;;;;;;;12.85;7.18;;;15.60;99.90;;;;;;4954242;28;20114;-77
2021/10/08 04:03:56;;;;;;;12.25;6.50;;;15.60;99.90;;;;;;4954118;28;20036;-78
2021/10/08 04:06:22;;;;;;;15.48;6.50;;;15.60;99.90;;;;;;4954385;28;20033;-78
2021/10/08 04:08:48;;;;;;;14.65;6.88;;;15.60;99.90;;;;;;4952816;29;20455;-78
2021/10/08 04:11:14;;;;;;;17.92;6.38;;;15.60;99.90;;;;;;4928055;29;20064;-78
2021/10/08 04:13:39;;;;;;;11.50;6.20;;;15.60;99.90;;;;;;4948842;29;20031;-78
2021/10/08 04:16:05;;;;;;;17.40;6.85;;;15.50;99.90;;;;;;4948757;28;20050;-78
2021/10/08 04:18:33;;;;;;;18.10;6.47;;;15.60;99.90;;;;;;4946415;29;20012;-78
2021/10/08 04:20:59;;;;;;;15.98;7.13;;;15.60;99.90;;;;;;4954672;28;20051;-77
2021/10/08 04:23:24;;;;;;;15.02;6.68;;;15.50;99.90;;;;;;4950534;28;20031;-78
2021/10/08 04:25:50;;;;;;;14.00;6.57;;;15.50;99.90;;;;;;4944709;28;20499;-77
2021/10/08 04:28:16;;;;;;;17.70;6.60;;;15.50;99.90;;;;;;4947042;29;20110;-78
2021/10/08 04:30:42;;;;;;;23.15;6.75;;;15.50;99.90;;;;;;4950687;28;20031;-77
2021/10/08 04:33:19;;;;;;;8.93;6.18;;;15.50;99.90;;;;;;4951899;28;20044;-78
2021/10/08 04:35:45;;;;;;;10.82;5.97;;;15.40;99.90;;;;;;4955740;28;20027;-78
2021/10/08 04:38:11;;;;;;;12.80;6.47;;;15.50;99.90;;;;;;4956620;29;20039;-78
2021/10/08 04:40:37;;;;;;;12.23;6.60;;;15.50;99.90;;;;;;4954881;28;20057;-78
2021/10/08 04:43:04;;;;;;;15.73;6.32;;;15.50;99.90;;;;;;4938128;29;20063;-77
2021/10/08 04:45:29;;;;;;;17.85;6.88;;;15.50;99.90;;;;;;4946072;28;20031;-77
2021/10/08 04:47:56;;;;;;;11.15;6.70;;;15.50;99.90;;;;;;4955343;29;20046;-78
2021/10/08 04:50:22;;;;;;;13.63;5.85;;;15.50;99.90;;;;;;4979114;23;20098;-81
2021/10/08 04:52:48;;;;;;;24.15;7.32;;;15.50;99.90;;;;;;4969836;28;20031;-83
2021/10/08 04:55:14;;;;;;;19.67;6.15;;;15.50;99.90;;;;;;4968214;28;20034;-78
2021/10/08 04:57:40;;;;;;;17.35;6.43;;;15.60;99.90;;;;;;4950820;23;20051;-79
2021/10/08 05:00:07;;;;;;;18.75;6.47;;;15.60;99.90;;;;;;4965170;28;20446;-81
2021/10/08 05:02:33;;;;;;;14.35;6.95;;;15.60;99.90;;;;;;4943503;29;20063;-81
2021/10/08 05:04:59;;;;;;;18.13;6.90;;;15.60;99.90;;;;;;4956337;28;20027;-81
2021/10/08 05:07:25;;;;;;;18.30;6.68;;;15.60;99.90;;;;;;4952173;29;20039;-79
2021/10/08 05:09:50;;;;;;;10.63;6.93;;;15.60;99.90;;;;;;4935444;29;20051;-79
2021/10/08 05:12:16;;;;;;;21.98;6.40;;;15.60;99.90;;;;;;4959215;28;20046;-82
2021/10/08 05:14:43;;;;;;;11.20;7.03;;;15.60;99.90;;;;;;4957709;28;20019;-78
2021/10/08 05:17:09;;;;;;;15.98;6.70;;;15.60;99.90;;;;;;4957567;29;20027;-80
2021/10/08 05:19:35;;;;;;;19.85;7.38;;;15.60;99.90;;;;;;4963015;28;20050;-81
2021/10/08 05:22:01;;;;;;;19.25;7.30;;;15.60;99.90;;;;;;4937960;29;20051;-81
2021/10/08 05:24:30;;;;;;;17.60;7.38;;;15.60;99.90;;;;;;4947046;29;20038;-80
2021/10/08 05:26:55;;;;;;;19.70;7.50;;;15.60;99.90;;;;;;4935265;29;20046;-79
2021/10/08 05:29:21;;;;;;;23.08;6.53;;;15.60;99.90;;;;;;4940832;29;20118;-77
2021/10/08 05:31:47;;;;;;;16.55;7.53;;;15.60;99.90;;;;;;4953813;28;20448;-80
2021/10/08 05:34:13;;;;;;;13.88;6.15;;;15.60;99.90;;;;;;4933041;29;20035;-80
2021/10/08 05:36:39;;;;;;;16.20;6.82;;;15.60;99.90;;;;;;4956595;29;20042;-81
2021/10/08 05:39:05;;;;;;;13.63;6.43;;;15.60;99.90;;;;;;4957109;28;20031;-79
2021/10/08 05:41:31;;;;;;;25.48;6.53;;;15.60;99.90;;;;;;4958406;29;20425;-78
2021/10/08 05:43:57;;;;;;;13.20;6.45;;;15.60;99.90;;;;;;4956485;29;20043;-78
2021/10/08 05:46:23;;;;;;;13.10;6.68;;;15.60;99.90;;;;;;4950601;29;20161;-80
2021/10/08 05:48:49;;;;;;;17.40;6.75;;;15.60;99.90;;;;;;4936405;29;20050;-81
2021/10/08 05:51:16;;;;;;;16.48;6.80;;;15.60;99.90;;;;;;4936719;29;20092;-80
2021/10/08 05:53:41;;;;;;;17.92;7.55;;;15.60;99.90;;;;;;4935544;29;20031;-81
2021/10/08 05:56:07;;;;;;;15.90;7.20;;;15.60;99.90;;;;;;4951528;29;20038;-79
2021/10/08 05:58:33;;;;;;;16.00;7.13;;;15.70;99.90;;;;;;4954062;29;20040;-81
2021/10/08 06:00:59;;;;;;;13.68;6.80;;;15.70;99.90;;;;;;4953605;29;20067;-81
2021/10/08 06:03:25;;;;;;;17.80;7.45;;;15.60;99.90;;;;;;4951301;29;20098;-81
2021/10/08 06:05:50;;;;;;;17.45;6.28;;;15.60;99.90;;;;;;4953225;29;20027;-78
2021/10/08 06:08:16;;;;;;;12.13;6.07;;;15.60;99.90;;;;;;4945568;29;20391;-78
2021/10/08 06:10:42;;;;;;;22.80;6.78;;;15.70;99.90;;;;;;4935250;29;20707;-78
2021/10/08 06:13:08;;;;;;;36.25;7.10;;;15.60;99.90;;;;;;4944055;29;20035;-76
2021/10/08 06:15:34;;;;;;;16.40;6.30;;;15.70;99.90;;;;;;4954056;29;20061;-76
2021/10/08 06:18:00;;;;;;;16.98;6.82;;;15.60;99.90;;;;;;4924380;29;20500;-76
2021/10/08 06:20:26;;;;;;;18.60;6.53;;;15.60;99.90;;;;;;4953824;29;20038;-77
2021/10/08 06:22:53;;;;;;;11.38;6.80;;;15.60;99.90;;;;;;4954152;29;20027;-77
2021/10/08 06:25:19;;;;;;;19.95;6.80;;;15.60;99.90;;;;;;4950629;29;20404;-77
2021/10/08 06:27:46;;;;;;;29.08;6.88;;;15.60;99.90;;;;;;4953909;29;20484;-77
2021/10/08 06:30:14;;;;;;;19.10;6.10;;;15.60;99.90;;;;;;4947047;29;20066;-76
2021/10/08 06:32:40;;;;;;;19.77;6.72;;;15.60;99.90;;;;;;4945908;29;20036;-76
2021/10/08 06:35:07;;;;;;;23.65;6.10;;;15.60;99.90;;;;;;4929517;29;20054;-76
2021/10/08 06:37:32;;;;;;;15.80;7.20;;;15.60;99.90;;;;;;4953900;29;20032;-76
2021/10/08 06:39:58;;;;;;;10.23;5.97;;;15.60;99.90;;;;;;4953681;29;20031;-75
2021/10/08 06:42:24;;;;;;;14.90;5.20;;;15.60;99.90;;;;;;4953832;29;20027;-76
2021/10/08 06:44:54;;;;;;;14.70;6.63;;;15.60;99.90;;;;;;4953551;29;20031;-76
2021/10/08 06:47:20;;;;;;;10.68;5.75;;;15.60;99.90;;;;;;4954139;29;20400;-76
2021/10/08 06:49:46;;;;;;;17.20;6.25;;;15.60;99.90;;;;;;4954890;29;20031;-76
2021/10/08 06:52:12;;;;;;;11.40;6.20;;;15.60;99.90;;;;;;4936030;29;20043;-74
2021/10/08 06:54:38;;;;;;;12.02;5.55;;;15.70;99.90;;;;;;4952840;29;20032;-74
2021/10/08 06:57:03;;;;;;;14.65;5.82;;;15.70;99.90;;;;;;4953243;29;20058;-75
2021/10/08 06:59:29;;;;;;;13.52;6.13;;;15.70;99.90;;;;;;4953812;29;20461;-75
2021/10/08 07:01:55;;;;;;;9.10;5.50;;;15.80;99.90;;;;;;4943175;29;20512;-75
2021/10/08 07:04:21;;;;;;;12.77;6.10;;;15.70;99.90;;;;;;4953321;29;20035;-76
2021/10/08 07:06:48;;;;;;;27.38;5.88;;;15.80;99.90;;;;;;4951825;28;20110;-75
2021/10/08 07:09:13;;;;;;;9.65;5.95;;;15.80;99.90;;;;;;4952955;29;20063;-76
2021/10/08 07:11:39;;;;;;;11.50;5.10;;;15.70;99.90;;;;;;4952666;29;20067;-77
2021/10/08 07:14:05;;;;;;;8.52;5.38;;;15.70;99.90;;;;;;4952828;29;20031;-75
2021/10/08 07:16:31;;;;;;;16.25;6.18;;;15.70;99.90;;;;;;4953009;29;20036;-74
2021/10/08 07:19:04;;;;;;;13.05;5.80;;;15.60;99.90;;;;;;4950422;29;20499;-75
2021/10/08 07:21:30;;;;;;;8.15;4.82;;;15.60;99.90;;;;;;4934962;29;20033;-74
2021/10/08 07:23:56;;;;;;;11.80;4.50;;;15.60;99.90;;;;;;4954146;29;20031;-77
2021/10/08 07:26:22;;;;;;;10.45;5.05;;;15.60;99.90;;;;;;4957831;29;20442;-78
2021/10/08 07:28:48;;;;;;;9.90;4.57;;;15.60;99.90;;;;;;4959590;28;20027;-81
2021/10/08 07:31:14;;;;;;;9.43;4.43;;;15.60;99.90;;;;;;4957894;29;20560;-74
2021/10/08 07:33:41;;;;;;;9.35;4.68;;;15.60;99.90;;;;;;4958186;29;20027;-75
2021/10/08 07:36:07;;;;;;;10.98;4.00;;;15.60;99.90;;;;;;4957719;29;20050;-74
2021/10/08 07:38:32;;;;;;;8.82;4.03;;;15.60;99.90;;;;;;4955244;29;20027;-76
2021/10/08 07:40:58;;;;;;;6.45;4.00;;;15.50;99.90;;;;;;4957274;29;20070;-76
2021/10/08 07:43:24;;;;;;;13.20;4.55;;;15.60;99.90;;;;;;4957183;29;20051;-76
2021/10/08 07:45:50;;;;;;;19.48;4.40;;;15.60;99.90;;;;;;4954495;29;20062;-74
2021/10/08 07:48:16;;;;;;;17.63;4.60;;;15.60;99.90;;;;;;4957177;29;20027;-75
2021/10/08 07:50:41;;;;;;;15.38;3.90;;;15.60;99.90;;;;;;4954143;29;20087;-77
2021/10/08 07:53:07;;;;;;;12.30;4.57;;;15.60;99.90;;;;;;4956205;29;20158;-78
2021/10/08 07:55:33;;;;;;;20.63;3.85;;;15.60;99.90;;;;;;4936729;29;20488;-74
2021/10/08 07:57:59;;;;;;;10.32;4.00;;;15.60;99.90;;;;;;4956915;29;20043;-76
2021/10/08 08:00:25;;;;;;;8.75;3.75;;;15.60;99.90;;;;;;4938962;29;20214;-75
2021/10/08 08:02:50;;;;;;;9.73;4.05;;;15.60;99.90;;;;;;4957747;29;20031;-79
2021/10/08 08:05:16;;;;;;;7.65;3.50;;;15.60;99.90;;;;;;4956085;29;20027;-75
2021/10/08 08:07:42;;;;;;;15.75;4.13;;;15.60;99.90;;;;;;4956566;29;20023;-75
2021/10/08 08:10:09;;;;;;;10.27;3.78;;;15.70;99.90;;;;;;4956704;29;20095;-76
2021/10/08 08:12:36;;;;;;;10.23;3.97;;;15.70;99.90;;;;;;4937240;29;20464;-76
2021/10/08 08:15:04;;;;;;;8.93;4.28;;;15.60;99.90;;;;;;4953268;29;20043;-75
2021/10/08 08:17:29;;;;;;;12.13;3.63;;;15.70;99.90;;;;;;4949980;29;20043;-76
2021/10/08 08:19:55;;;;;;;7.75;4.13;;;15.60;99.90;;;;;;4957536;29;20361;-77
2021/10/08 08:22:21;;;;;;;7.15;3.70;;;15.70;99.90;;;;;;4956768;29;20480;-79
2021/10/08 08:24:47;;;;;;;9.90;4.10;;;15.60;99.90;;;;;;4948683;29;20404;-76
2021/10/08 08:27:13;;;;;;;7.53;4.03;;;15.60;99.90;;;;;;4954361;29;20035;-76
2021/10/08 08:29:38;;;;;;;14.98;4.20;;;15.60;99.90;;;;;;4956555;29;20027;-75
2021/10/08 08:32:04;;;;;;;9.07;3.90;;;15.70;99.90;;;;;;4938451;28;20457;-76
2021/10/08 08:34:30;;;;;;;7.93;3.85;;;15.70;99.90;;;;;;4955895;29;20027;-76
2021/10/08 08:36:56;;;;;;;7.88;4.07;;;15.70;99.90;;;;;;4956262;29;20066;-76
2021/10/08 08:39:22;;;;;;;14.60;3.85;;;15.70;99.90;;;;;;4956312;29;20110;-76
2021/10/08 08:41:49;;;;;;;8.85;3.45;;;15.60;99.90;;;;;;4956441;29;20050;-75
2021/10/08 08:44:15;;;;;;;6.00;3.42;;;15.60;99.90;;;;;;4955900;29;20035;-75
2021/10/08 08:46:41;;;;;;;5.50;3.45;;;15.70;99.90;;;;;;4952388;29;20042;-77
2021/10/08 08:49:07;;;;;;;10.00;3.70;;;15.60;99.90;;;;;;4935585;29;20039;-76
2021/10/08 08:51:33;;;;;;;7.43;3.70;;;15.50;99.90;;;;;;4955598;29;20055;-78
2021/10/08 08:54:06;;;;;;;8.48;3.53;;;15.50;99.90;;;;;;4955437;29;20496;-77
2021/10/08 08:56:33;;;;;;;6.40;3.42;;;15.50;99.90;;;;;;4956570;29;20035;-77
2021/10/08 08:59:01;;;;;;;7.07;3.67;;;15.40;99.90;;;;;;4956270;29;20540;-77
2021/10/08 09:01:27;;;;;;;5.78;3.25;;;15.40;99.90;;;;;;4956534;29;20392;-78
2021/10/08 09:04:06;;;;;;;9.77;4.15;;;15.30;99.90;;;;;;4956676;29;20035;-76
2021/10/08 09:06:38;;;;;;;7.93;3.72;;;15.20;99.90;;;;;;4950663;29;20388;-76
2021/10/08 09:09:23;;;;;;;14.00;3.50;;;15.20;99.90;;;;;;4936113;29;20495;-77
2021/10/08 09:11:51;;;;;;;12.07;4.18;;;15.10;99.90;;;;;;4955705;29;20043;-79
2021/10/08 09:14:21;;;;;;;7.80;3.50;;;15.00;99.90;;;;;;4939128;29;20082;-76
2021/10/08 09:17:07;;;;;;;4.85;3.03;;;15.00;99.90;;;;;;4956201;29;20027;-76
2021/10/08 09:19:51;;;;;;;7.85;3.35;;;14.80;99.90;;;;;;4954489;29;20091;-78
2021/10/08 09:22:24;;;;;;;4.65;2.88;;;14.80;99.90;;;;;;4948242;28;20036;-76
2021/10/08 09:24:51;;;;;;;4.25;2.83;;;14.80;99.90;;;;;;4954223;29;20027;-76
2021/10/08 09:27:19;;;;;;;4.93;2.47;;;14.80;99.90;;;;;;4956077;29;20030;-76
2021/10/08 09:29:51;;;;;;;5.60;3.17;;;14.70;99.90;;;;;;4938425;29;20047;-75
2021/10/08 09:32:18;;;;;;;3.90;2.28;;;14.80;99.90;;;;;;4955723;29;20492;-75
2021/10/08 09:34:47;;;;;;;5.57;2.10;;;14.80;99.90;;;;;;4938369;29;20042;-75
2021/10/08 09:37:15;;;;;;;2.63;1.80;;;14.80;99.90;;;;;;4955851;29;20500;-76
2021/10/08 09:39:41;;;;;;;11.77;2.35;;;14.80;99.90;;;;;;4955330;29;20016;-75
2021/10/08 09:42:17;;;;;;;2.95;1.90;;;14.90;99.90;;;;;;4956433;29;20036;-74
2021/10/08 09:44:51;;;;;;;1.42;1.27;;;14.90;99.90;;;;;;4955965;28;20058;-75
2021/10/08 09:47:18;;;;;;;2.75;1.50;;;14.90;99.90;;;;;;4955467;29;20402;-75
2021/10/08 09:49:46;;;;;;;4.85;1.73;;;15.00;99.90;;;;;;4936402;29;20039;-75
2021/10/08 09:52:27;;;;;;;1.48;1.13;;;15.00;99.90;;;;;;4952495;29;20050;-76
2021/10/08 09:55:08;;;;;;;1.40;1.30;;;15.10;99.90;;;;;;4955253;29;20388;-75
2021/10/08 09:57:55;;;;;;;1.77;1.23;;;15.20;99.90;;;;;;4947252;29;20523;-75
2021/10/08 10:00:42;;;;;;;1.27;1.17;;;15.30;99.90;;;;;;4944798;29;20078;-77
2021/10/08 10:03:13;;;;;;;2.55;1.40;;;15.50;99.90;;;;;;4955368;29;20122;-76
2021/10/08 10:05:39;;;;;;;1.90;1.30;;;15.50;99.90;;;;;;4954092;29;20027;-75
2021/10/08 10:08:06;;;;;;;1.13;1.02;;;15.70;99.90;;;;;;4954239;29;20110;-77
2021/10/08 10:10:32;;;;;;;2.28;1.50;;;15.80;99.90;;;;;;4953442;29;20075;-79
2021/10/08 10:13:00;;;;;;;2.03;1.50;;;15.80;99.90;;;;;;4954186;29;20043;-75
2021/10/08 10:15:28;;;;;;;2.45;1.50;;;15.80;99.90;;;;;;4951491;29;20055;-77
2021/10/08 10:17:56;;;;;;;3.72;1.73;;;15.70;99.90;;;;;;4933829;29;20608;-75
2021/10/08 10:20:22;;;;;;;1.80;1.23;;;15.80;99.90;;;;;;4953080;29;20038;-75
2021/10/08 10:22:49;;;;;;;7.65;1.33;;;15.80;99.90;;;;;;4939736;29;20389;-77
2021/10/08 10:25:14;;;;;;;2.13;1.70;;;15.80;99.90;;;;;;4945400;29;20441;-76
2021/10/08 10:27:43;;;;;;;1.77;1.35;;;15.80;99.90;;;;;;4945430;29;20049;-75
2021/10/08 10:30:10;;;;;;;2.67;1.20;;;15.90;99.90;;;;;;4943482;29;20027;-77
2021/10/08 10:32:36;;;;;;;3.45;1.48;;;15.90;99.90;;;;;;4947424;29;20035;-77
2021/10/08 10:35:04;;;;;;;4.82;1.20;;;15.90;99.90;;;;;;4946411;29;20055;-79
2021/10/08 10:37:42;;;;;;;1.85;1.27;;;16.00;99.90;;;;;;4946229;29;20034;-77
2021/10/08 10:40:19;;;;;;;7.90;1.40;;;16.20;99.90;;;;;;4940806;29;20038;-81
2021/10/08 10:42:45;;;;;;;1.70;1.38;;;16.30;99.90;;;;;;4941784;29;20054;-81
2021/10/08 10:45:21;;;;;;;1.88;1.30;;;16.30;99.90;;;;;;4931026;29;20031;-82
2021/10/08 10:48:31;;;;;;;2.83;1.58;;;16.20;99.90;;;;;;4953526;29;20062;-77
2021/10/08 10:51:19;;;;;;;5.05;1.48;;;16.30;99.90;;;;;;4931988;29;20040;-74
2021/10/08 10:54:12;;;;;;;1.63;1.25;;;16.40;99.90;;;;;;4949394;29;20036;-74
2021/10/08 10:56:41;;;;;;;2.35;1.83;;;16.80;99.90;;;;;;4949979;28;20043;-76
2021/10/08 10:59:26;;;;;;;6.95;1.85;;;17.00;99.90;;;;;;4953676;29;20055;-75
2021/10/08 11:02:06;;;;;;;7.60;2.08;;;17.20;99.90;;;;;;4933719;29;20035;-74
2021/10/08 11:05:09;;;;;;;3.08;1.80;;;17.40;99.90;;;;;;4937251;29;20027;-76
2021/10/08 11:07:35;;;;;;;4.45;2.10;;;17.50;99.90;;;;;;4950733;29;20027;-73
2021/10/08 11:10:07;;;;;;;4.53;1.60;;;17.50;99.90;;;;;;4952890;29;20039;-74
2021/10/08 11:12:42;;;;;;;;;;;17.50;99.90;;;;;;4953705;29;20078;-75
2021/10/08 11:15:20;;;;;;;5.35;2.05;;;17.40;99.90;;;;;;4933019;29;20276;-73
2021/10/08 11:17:57;;;;;;;4.80;1.90;;;17.30;99.90;;;;;;4932289;29;20035;-85
2021/10/08 11:20:29;;;;;;;6.45;2.10;;;17.20;99.90;;;;;;4934596;29;20047;-74
2021/10/08 11:22:56;;;;;;;;;;;17.00;99.90;;;;;;4962124;28;20031;-74
2021/10/08 11:25:23;;;;;;;6.28;1.98;;;17.10;99.90;;;;;;4952434;28;19962;-73
2021/10/08 11:27:50;;;;;;;3.85;2.40;;;16.90;99.90;;;;;;4952751;29;20035;-75
2021/10/08 11:30:18;;;;;;;5.32;2.03;;;16.90;99.90;;;;;;4935296;29;20067;-74
2021/10/08 11:32:58;;;;;;;5.75;2.45;;;16.80;99.90;;;;;;4951007;29;20059;-78
2021/10/08 11:35:36;;;;;;;6.43;2.30;;;16.70;99.90;;;;;;4952347;29;20489;-75
2021/10/08 11:38:05;;;;;;;5.13;2.50;;;16.80;99.90;;;;;;4952746;29;20416;-74
2021/10/08 11:40:39;;;;;;;16.35;2.92;;;16.80;99.90;;;;;;4952804;29;20031;-75
2021/10/08 11:43:36;;;;;;;2.72;2.38;;;16.70;99.90;;;;;;4952326;29;20058;-83
2021/10/08 11:46:29;;;;;;;3.72;2.67;;;16.50;99.90;;;;;;4949172;29;20106;-73
2021/10/08 11:49:15;;;;;;;7.10;2.25;;;16.50;99.90;;;;;;4952938;29;20039;-75
2021/10/08 11:51:42;;;;;;;4.32;2.65;;;16.50;99.90;;;;;;4948909;29;20031;-76
2021/10/08 11:54:16;;;;;;;3.85;2.35;;;16.40;99.90;;;;;;4951122;29;20118;-75
2021/10/08 11:56:56;;;;;;;10.25;2.50;;;16.30;99.90;;;;;;4934571;29;20027;-77
2021/10/08 11:59:22;;;;;;;3.33;2.42;;;16.40;99.90;;;;;;4951846;29;20078;-75
2021/10/08 12:01:48;;;;;;;5.13;2.60;;;16.40;99.90;;;;;;4952231;29;20039;-75
2021/10/08 12:04:20;;;;;;;3.88;3.25;;;16.40;99.90;;;;;;4934016;29;20054;-75
2021/10/08 12:06:46;;;;;;;6.25;2.20;;;16.30;99.90;;;;;;4950956;28;20392;-75
2021/10/08 12:09:21;;;;;;;3.65;2.38;;;16.30;99.90;;;;;;4954425;29;20039;-77
2021/10/08 12:11:47;;;;;;;4.30;2.95;;;16.30;99.90;;;;;;4956165;29;20583;-76
2021/10/08 12:14:12;;;;;;;3.05;2.70;;;16.30;99.90;;;;;;4955592;29;20031;-75
2021/10/08 12:16:40;;;;;;;8.45;3.33;;;16.40;99.90;;;;;;4954797;29;20036;-76
2021/10/08 12:19:07;;;;;;;7.57;2.80;;;16.40;99.90;;;;;;4951876;29;20437;-74
2021/10/08 12:21:37;;;;;;;4.35;2.40;;;16.50;99.90;;;;;;4956327;29;20035;-75
2021/10/08 12:24:03;;;;;;;3.58;2.42;;;16.50;99.90;;;;;;4956448;29;20027;-78
2021/10/08 12:26:30;;;;;;;4.13;2.25;;;16.50;99.90;;;;;;4945866;29;20451;-74
2021/10/08 12:28:57;;;;;;;3.50;2.33;;;16.60;99.90;;;;;;4952955;29;20090;-78
2021/10/08 12:31:48;;;;;;;7.75;2.47;;;16.70;99.90;;;;;;4949206;29;20137;-74
2021/10/08 12:34:31;;;;;;;2.63;2.22;;;16.70;99.90;;;;;;4954692;29;20046;-77
2021/10/08 12:37:03;;;;;;;4.25;2.83;;;16.80;99.90;;;;;;4936663;29;20160;-75
2021/10/08 12:39:33;;;;;;;4.45;2.58;;;16.90;99.90;;;;;;4952592;29;20035;-76
2021/10/08 12:42:23;;;;;;;5.72;2.75;;;16.90;99.90;;;;;;4954278;29;20038;-81
2021/10/08 12:44:58;;;;;;;3.95;2.90;;;17.00;99.90;;;;;;4953911;29;20039;-75
2021/10/08 12:47:25;;;;;;;8.20;3.13;;;17.00;99.90;;;;;;4953285;29;21368;-76
2021/10/08 12:50:00;;;;;;;3.20;2.45;;;16.90;99.90;;;;;;4937054;29;20039;-75